sensor_id;sensor_type;location;lat;lon;timestamp;P1;durP1;ratioP1;P2;durP2;ratioP2
18789;SDS011;9523;42.650;23.386;2023-02-01T00:02:01;6.23;;;4.60;;
18789;SDS011;9523;42.650;23.386;2023-02-01T00:04:28;5.80;;;4.70;;
18789;SDS011;9523;42.650;23.386;2023-02-01T00:06:54;3.53;;;3.23;;
18789;SDS011;9523;42.650;23.386;2023-02-01T00:09:21;7.53;;;3.90;;
18789;SDS011;9523;42.650;23.386;2023-02-01T00:11:47;6.83;;;4.70;;
18789;SDS011;9523;42.650;23.386;2023-02-01T00:14:15;5.97;;;3.83;;
18789;SDS011;9523;42.650;23.386;2023-02-01T00:16:42;6.93;;;4.53;;
18789;SDS011;9523;42.650;23.386;2023-02-01T00:19:10;7.13;;;4.47;;
18789;SDS011;9523;42.650;23.386;2023-02-01T00:21:37;5.17;;;4.67;;
18789;SDS011;9523;42.650;23.386;2023-02-01T00:24:03;5.33;;;4.70;;
18789;SDS011;9523;42.650;23.386;2023-02-01T00:26:31;6.60;;;4.50;;
18789;SDS011;9523;42.650;23.386;2023-02-01T00:28:58;5.57;;;4.67;;
18789;SDS011;9523;42.650;23.386;2023-02-01T00:31:26;5.37;;;3.90;;
18789;SDS011;9523;42.650;23.386;2023-02-01T00:33:52;6.47;;;4.07;;
18789;SDS011;9523;42.650;23.386;2023-02-01T00:36:19;6.77;;;3.73;;
18789;SDS011;9523;42.650;23.386;2023-02-01T00:38:45;6.83;;;4.03;;
18789;SDS011;9523;42.650;23.386;2023-02-01T00:41:12;5.10;;;3.90;;
18789;SDS011;9523;42.650;23.386;2023-02-01T00:43:40;5.93;;;3.97;;
18789;SDS011;9523;42.650;23.386;2023-02-01T00:46:07;6.33;;;4.80;;
18789;SDS011;9523;42.650;23.386;2023-02-01T00:48:35;5.77;;;4.23;;
18789;SDS011;9523;42.650;23.386;2023-02-01T00:51:01;4.97;;;3.80;;
18789;SDS011;9523;42.650;23.386;2023-02-01T00:53:28;4.30;;;3.57;;
18789;SDS011;9523;42.650;23.386;2023-02-01T00:55:55;10.03;;;3.60;;
18789;SDS011;9523;42.650;23.386;2023-02-01T00:58:22;5.33;;;3.60;;
18789;SDS011;9523;42.650;23.386;2023-02-01T01:00:56;4.80;;;2.93;;
18789;SDS011;9523;42.650;23.386;2023-02-01T01:03:23;2.97;;;2.67;;
18789;SDS011;9523;42.650;23.386;2023-02-01T01:05:50;4.07;;;3.00;;
18789;SDS011;9523;42.650;23.386;2023-02-01T01:08:17;5.03;;;2.97;;
18789;SDS011;9523;42.650;23.386;2023-02-01T01:10:43;4.43;;;2.93;;
18789;SDS011;9523;42.650;23.386;2023-02-01T01:13:10;4.47;;;3.50;;
18789;SDS011;9523;42.650;23.386;2023-02-01T01:15:37;5.77;;;3.03;;
18789;SDS011;9523;42.650;23.386;2023-02-01T01:18:04;5.27;;;3.00;;
18789;SDS011;9523;42.650;23.386;2023-02-01T01:20:30;5.53;;;3.27;;
18789;SDS011;9523;42.650;23.386;2023-02-01T01:22:58;5.43;;;3.40;;
18789;SDS011;9523;42.650;23.386;2023-02-01T01:25:25;3.50;;;2.83;;
18789;SDS011;9523;42.650;23.386;2023-02-01T01:27:51;5.47;;;3.13;;
18789;SDS011;9523;42.650;23.386;2023-02-01T01:30:18;7.17;;;3.23;;
18789;SDS011;9523;42.650;23.386;2023-02-01T01:32:45;3.67;;;2.80;;
18789;SDS011;9523;42.650;23.386;2023-02-01T01:35:11;3.87;;;2.90;;
18789;SDS011;9523;42.650;23.386;2023-02-01T01:37:38;3.60;;;2.70;;
18789;SDS011;9523;42.650;23.386;2023-02-01T01:40:07;5.40;;;3.23;;
18789;SDS011;9523;42.650;23.386;2023-02-01T01:42:36;3.10;;;2.40;;
18789;SDS011;9523;42.650;23.386;2023-02-01T01:45:03;3.23;;;2.63;;
18789;SDS011;9523;42.650;23.386;2023-02-01T01:47:30;3.77;;;2.70;;
18789;SDS011;9523;42.650;23.386;2023-02-01T01:49:58;4.20;;;2.90;;
18789;SDS011;9523;42.650;23.386;2023-02-01T01:52:25;3.37;;;3.00;;
18789;SDS011;9523;42.650;23.386;2023-02-01T01:54:52;3.63;;;2.80;;
18789;SDS011;9523;42.650;23.386;2023-02-01T01:57:22;4.97;;;3.20;;
18789;SDS011;9523;42.650;23.386;2023-02-01T01:59:57;2.30;;;2.10;;
18789;SDS011;9523;42.650;23.386;2023-02-01T02:02:24;5.43;;;2.90;;
18789;SDS011;9523;42.650;23.386;2023-02-01T02:04:51;5.93;;;2.97;;
18789;SDS011;9523;42.650;23.386;2023-02-01T02:07:19;5.83;;;2.70;;
18789;SDS011;9523;42.650;23.386;2023-02-01T02:09:47;5.60;;;3.17;;
18789;SDS011;9523;42.650;23.386;2023-02-01T02:12:13;5.20;;;2.80;;
18789;SDS011;9523;42.650;23.386;2023-02-01T02:14:41;4.67;;;2.70;;
18789;SDS011;9523;42.650;23.386;2023-02-01T02:17:12;6.13;;;3.03;;
18789;SDS011;9523;42.650;23.386;2023-02-01T02:25:50;5.10;;;3.77;;
18789;SDS011;9523;42.650;23.386;2023-02-01T02:28:36;4.87;;;3.03;;
18789;SDS011;9523;42.650;23.386;2023-02-01T02:31:10;3.00;;;2.27;;
18789;SDS011;9523;42.650;23.386;2023-02-01T02:33:43;4.83;;;2.40;;
18789;SDS011;9523;42.650;23.386;2023-02-01T02:36:15;3.50;;;3.10;;
18789;SDS011;9523;42.650;23.386;2023-02-01T02:38:50;4.13;;;2.80;;
18789;SDS011;9523;42.650;23.386;2023-02-01T02:41:19;2.80;;;2.37;;
18789;SDS011;9523;42.650;23.386;2023-02-01T02:44:00;3.60;;;2.60;;
18789;SDS011;9523;42.650;23.386;2023-02-01T02:46:48;3.07;;;2.47;;
18789;SDS011;9523;42.650;23.386;2023-02-01T02:49:34;3.63;;;2.57;;
18789;SDS011;9523;42.650;23.386;2023-02-01T02:52:03;3.23;;;2.57;;
18789;SDS011;9523;42.650;23.386;2023-02-01T02:54:57;3.80;;;2.30;;
18789;SDS011;9523;42.650;23.386;2023-02-01T02:57:25;5.37;;;2.80;;
18789;SDS011;9523;42.650;23.386;2023-02-01T03:00:11;3.20;;;2.30;;
18789;SDS011;9523;42.650;23.386;2023-02-01T03:02:56;5.30;;;2.63;;
18789;SDS011;9523;42.650;23.386;2023-02-01T03:05:42;3.70;;;2.57;;
18789;SDS011;9523;42.650;23.386;2023-02-01T03:08:10;4.13;;;2.30;;
18789;SDS011;9523;42.650;23.386;2023-02-01T03:13:26;3.13;;;1.97;;
18789;SDS011;9523;42.650;23.386;2023-02-01T03:15:56;3.33;;;2.13;;
18789;SDS011;9523;42.650;23.386;2023-02-01T03:18:24;3.53;;;2.40;;
18789;SDS011;9523;42.650;23.386;2023-02-01T03:20:53;4.20;;;1.87;;
18789;SDS011;9523;42.650;23.386;2023-02-01T03:23:22;2.87;;;2.13;;
18789;SDS011;9523;42.650;23.386;2023-02-01T03:25:50;2.53;;;1.90;;
18789;SDS011;9523;42.650;23.386;2023-02-01T03:28:18;4.73;;;2.30;;
18789;SDS011;9523;42.650;23.386;2023-02-01T03:30:46;3.20;;;2.30;;
18789;SDS011;9523;42.650;23.386;2023-02-01T03:33:15;2.67;;;1.23;;
18789;SDS011;9523;42.650;23.386;2023-02-01T03:35:50;3.80;;;2.07;;
18789;SDS011;9523;42.650;23.386;2023-02-01T03:38:21;4.73;;;2.43;;
18789;SDS011;9523;42.650;23.386;2023-02-01T03:40:51;3.33;;;2.13;;
18789;SDS011;9523;42.650;23.386;2023-02-01T03:43:18;3.70;;;2.50;;
18789;SDS011;9523;42.650;23.386;2023-02-01T03:45:46;4.50;;;2.10;;
18789;SDS011;9523;42.650;23.386;2023-02-01T03:48:15;3.87;;;2.27;;
18789;SDS011;9523;42.650;23.386;2023-02-01T03:50:44;1.87;;;1.77;;
18789;SDS011;9523;42.650;23.386;2023-02-01T03:53:13;3.17;;;1.67;;
18789;SDS011;9523;42.650;23.386;2023-02-01T03:55:42;2.87;;;2.30;;
18789;SDS011;9523;42.650;23.386;2023-02-01T03:58:09;4.40;;;2.00;;
18789;SDS011;9523;42.650;23.386;2023-02-01T04:00:38;3.53;;;2.10;;
18789;SDS011;9523;42.650;23.386;2023-02-01T04:03:06;3.30;;;2.10;;
18789;SDS011;9523;42.650;23.386;2023-02-01T04:05:33;4.37;;;2.10;;
18789;SDS011;9523;42.650;23.386;2023-02-01T04:07:59;2.77;;;1.80;;
18789;SDS011;9523;42.650;23.386;2023-02-01T04:10:26;4.77;;;2.00;;
18789;SDS011;9523;42.650;23.386;2023-02-01T04:12:54;2.67;;;2.17;;
18789;SDS011;9523;42.650;23.386;2023-02-01T04:15:20;2.07;;;1.87;;
18789;SDS011;9523;42.650;23.386;2023-02-01T04:17:47;5.13;;;2.10;;
18789;SDS011;9523;42.650;23.386;2023-02-01T04:20:13;3.43;;;1.70;;
18789;SDS011;9523;42.650;23.386;2023-02-01T04:22:40;3.07;;;2.10;;
18789;SDS011;9523;42.650;23.386;2023-02-01T04:25:07;6.27;;;2.67;;
18789;SDS011;9523;42.650;23.386;2023-02-01T04:27:34;5.03;;;2.43;;
18789;SDS011;9523;42.650;23.386;2023-02-01T04:30:02;4.67;;;2.40;;
18789;SDS011;9523;42.650;23.386;2023-02-01T04:32:28;4.07;;;2.03;;
18789;SDS011;9523;42.650;23.386;2023-02-01T04:34:55;2.97;;;2.17;;
18789;SDS011;9523;42.650;23.386;2023-02-01T04:37:21;5.70;;;2.27;;
18789;SDS011;9523;42.650;23.386;2023-02-01T04:39:48;3.70;;;2.10;;
18789;SDS011;9523;42.650;23.386;2023-02-01T04:42:14;4.77;;;2.60;;
18789;SDS011;9523;42.650;23.386;2023-02-01T04:44:41;4.43;;;2.20;;
18789;SDS011;9523;42.650;23.386;2023-02-01T04:47:09;3.63;;;2.83;;
18789;SDS011;9523;42.650;23.386;2023-02-01T04:49:35;3.23;;;2.57;;
18789;SDS011;9523;42.650;23.386;2023-02-01T04:52:02;5.17;;;3.00;;
18789;SDS011;9523;42.650;23.386;2023-02-01T04:54:29;5.93;;;3.77;;
18789;SDS011;9523;42.650;23.386;2023-02-01T04:56:55;6.53;;;2.60;;
18789;SDS011;9523;42.650;23.386;2023-02-01T04:59:22;5.27;;;3.10;;
18789;SDS011;9523;42.650;23.386;2023-02-01T05:01:48;5.40;;;2.87;;
18789;SDS011;9523;42.650;23.386;2023-02-01T05:04:16;4.13;;;2.53;;
18789;SDS011;9523;42.650;23.386;2023-02-01T05:06:44;3.53;;;2.17;;
18789;SDS011;9523;42.650;23.386;2023-02-01T05:09:10;6.57;;;2.97;;
18789;SDS011;9523;42.650;23.386;2023-02-01T05:11:37;6.73;;;3.13;;
18789;SDS011;9523;42.650;23.386;2023-02-01T05:14:20;7.30;;;3.30;;
18789;SDS011;9523;42.650;23.386;2023-02-01T05:16:47;4.57;;;2.87;;
18789;SDS011;9523;42.650;23.386;2023-02-01T05:19:14;7.20;;;3.60;;
18789;SDS011;9523;42.650;23.386;2023-02-01T05:21:41;6.80;;;3.20;;
18789;SDS011;9523;42.650;23.386;2023-02-01T05:24:08;3.83;;;2.57;;
18789;SDS011;9523;42.650;23.386;2023-02-01T05:26:41;7.17;;;3.30;;
18789;SDS011;9523;42.650;23.386;2023-02-01T05:29:08;4.70;;;3.17;;
18789;SDS011;9523;42.650;23.386;2023-02-01T05:31:35;3.07;;;2.63;;
18789;SDS011;9523;42.650;23.386;2023-02-01T05:34:02;4.10;;;2.40;;
18789;SDS011;9523;42.650;23.386;2023-02-01T05:36:28;6.70;;;3.60;;
18789;SDS011;9523;42.650;23.386;2023-02-01T05:38:56;4.77;;;3.40;;
18789;SDS011;9523;42.650;23.386;2023-02-01T05:41:23;5.10;;;3.67;;
18789;SDS011;9523;42.650;23.386;2023-02-01T05:43:49;7.03;;;3.83;;
18789;SDS011;9523;42.650;23.386;2023-02-01T05:46:16;6.87;;;3.57;;
18789;SDS011;9523;42.650;23.386;2023-02-01T05:48:42;6.07;;;3.57;;
18789;SDS011;9523;42.650;23.386;2023-02-01T05:51:09;8.73;;;3.53;;
18789;SDS011;9523;42.650;23.386;2023-02-01T05:53:36;6.33;;;3.83;;
18789;SDS011;9523;42.650;23.386;2023-02-01T05:56:04;3.83;;;3.23;;
18789;SDS011;9523;42.650;23.386;2023-02-01T05:58:31;6.33;;;3.73;;
18789;SDS011;9523;42.650;23.386;2023-02-01T06:00:58;6.30;;;3.90;;
18789;SDS011;9523;42.650;23.386;2023-02-01T06:03:25;5.90;;;3.77;;
18789;SDS011;9523;42.650;23.386;2023-02-01T06:05:52;5.63;;;3.37;;
18789;SDS011;9523;42.650;23.386;2023-02-01T06:08:19;3.17;;;2.50;;
18789;SDS011;9523;42.650;23.386;2023-02-01T06:10:45;5.93;;;3.63;;
18789;SDS011;9523;42.650;23.386;2023-02-01T06:13:13;6.10;;;3.87;;
18789;SDS011;9523;42.650;23.386;2023-02-01T06:15:39;4.80;;;3.33;;
18789;SDS011;9523;42.650;23.386;2023-02-01T06:18:07;5.87;;;3.43;;
18789;SDS011;9523;42.650;23.386;2023-02-01T06:20:34;6.40;;;3.63;;
18789;SDS011;9523;42.650;23.386;2023-02-01T06:23:00;4.87;;;2.83;;
18789;SDS011;9523;42.650;23.386;2023-02-01T06:25:27;5.30;;;3.33;;
18789;SDS011;9523;42.650;23.386;2023-02-01T06:27:53;4.23;;;3.20;;
18789;SDS011;9523;42.650;23.386;2023-02-01T06:30:21;4.20;;;2.23;;
18789;SDS011;9523;42.650;23.386;2023-02-01T06:32:50;5.10;;;3.03;;
18789;SDS011;9523;42.650;23.386;2023-02-01T06:35:18;5.90;;;2.63;;
18789;SDS011;9523;42.650;23.386;2023-02-01T06:37:45;4.73;;;3.20;;
18789;SDS011;9523;42.650;23.386;2023-02-01T06:40:12;3.97;;;3.10;;
18789;SDS011;9523;42.650;23.386;2023-02-01T06:42:38;9.00;;;2.53;;
18789;SDS011;9523;42.650;23.386;2023-02-01T06:45:05;3.90;;;2.40;;
18789;SDS011;9523;42.650;23.386;2023-02-01T06:47:33;5.63;;;3.23;;
18789;SDS011;9523;42.650;23.386;2023-02-01T06:50:01;4.70;;;2.80;;
18789;SDS011;9523;42.650;23.386;2023-02-01T06:52:27;6.77;;;3.77;;
18789;SDS011;9523;42.650;23.386;2023-02-01T06:54:54;4.07;;;2.53;;
18789;SDS011;9523;42.650;23.386;2023-02-01T06:57:21;7.10;;;3.03;;
18789;SDS011;9523;42.650;23.386;2023-02-01T06:59:47;4.23;;;2.77;;
18789;SDS011;9523;42.650;23.386;2023-02-01T07:02:14;4.57;;;3.13;;
18789;SDS011;9523;42.650;23.386;2023-02-01T07:04:42;4.60;;;2.40;;
18789;SDS011;9523;42.650;23.386;2023-02-01T07:07:08;6.37;;;3.93;;
18789;SDS011;9523;42.650;23.386;2023-02-01T07:09:38;7.43;;;3.50;;
18789;SDS011;9523;42.650;23.386;2023-02-01T07:12:05;3.40;;;2.70;;
18789;SDS011;9523;42.650;23.386;2023-02-01T07:14:31;5.33;;;2.60;;
18789;SDS011;9523;42.650;23.386;2023-02-01T07:16:58;5.03;;;2.43;;
18789;SDS011;9523;42.650;23.386;2023-02-01T07:19:24;5.50;;;1.73;;
18789;SDS011;9523;42.650;23.386;2023-02-01T07:21:52;5.00;;;2.47;;
18789;SDS011;9523;42.650;23.386;2023-02-01T07:24:19;5.30;;;2.20;;
18789;SDS011;9523;42.650;23.386;2023-02-01T07:26:46;4.70;;;2.40;;
18789;SDS011;9523;42.650;23.386;2023-02-01T07:29:13;4.57;;;2.07;;
18789;SDS011;9523;42.650;23.386;2023-02-01T07:31:40;1.63;;;1.50;;
18789;SDS011;9523;42.650;23.386;2023-02-01T07:34:07;4.07;;;1.80;;
18789;SDS011;9523;42.650;23.386;2023-02-01T07:36:33;3.27;;;1.87;;
18789;SDS011;9523;42.650;23.386;2023-02-01T07:39:02;4.93;;;2.17;;
18789;SDS011;9523;42.650;23.386;2023-02-01T07:41:29;6.03;;;2.70;;
18789;SDS011;9523;42.650;23.386;2023-02-01T07:43:55;7.07;;;2.83;;
18789;SDS011;9523;42.650;23.386;2023-02-01T07:46:22;4.37;;;2.27;;
18789;SDS011;9523;42.650;23.386;2023-02-01T07:48:50;5.30;;;2.77;;
18789;SDS011;9523;42.650;23.386;2023-02-01T07:51:17;6.43;;;2.20;;
18789;SDS011;9523;42.650;23.386;2023-02-01T07:53:46;5.57;;;2.30;;
18789;SDS011;9523;42.650;23.386;2023-02-01T07:56:21;3.87;;;2.20;;
18789;SDS011;9523;42.650;23.386;2023-02-01T07:58:48;4.47;;;2.30;;
18789;SDS011;9523;42.650;23.386;2023-02-01T08:01:15;4.60;;;2.40;;
18789;SDS011;9523;42.650;23.386;2023-02-01T08:03:49;4.00;;;2.10;;
18789;SDS011;9523;42.650;23.386;2023-02-01T08:06:16;2.10;;;1.63;;
18789;SDS011;9523;42.650;23.386;2023-02-01T08:08:44;4.00;;;2.10;;
18789;SDS011;9523;42.650;23.386;2023-02-01T08:11:12;5.60;;;2.37;;
18789;SDS011;9523;42.650;23.386;2023-02-01T08:13:40;4.47;;;2.50;;
18789;SDS011;9523;42.650;23.386;2023-02-01T08:16:07;5.23;;;2.33;;
18789;SDS011;9523;42.650;23.386;2023-02-01T08:18:39;7.90;;;2.70;;
18789;SDS011;9523;42.650;23.386;2023-02-01T08:21:06;9.50;;;2.80;;
18789;SDS011;9523;42.650;23.386;2023-02-01T08:23:33;3.03;;;2.00;;
18789;SDS011;9523;42.650;23.386;2023-02-01T08:26:04;6.33;;;2.30;;
18789;SDS011;9523;42.650;23.386;2023-02-01T08:28:31;4.67;;;2.27;;
18789;SDS011;9523;42.650;23.386;2023-02-01T08:31:07;2.93;;;1.73;;
18789;SDS011;9523;42.650;23.386;2023-02-01T08:33:34;8.83;;;2.50;;
18789;SDS011;9523;42.650;23.386;2023-02-01T08:36:01;4.03;;;2.10;;
18789;SDS011;9523;42.650;23.386;2023-02-01T08:38:28;4.20;;;2.40;;
18789;SDS011;9523;42.650;23.386;2023-02-01T08:40:54;4.07;;;2.13;;
18789;SDS011;9523;42.650;23.386;2023-02-01T08:43:21;5.20;;;2.33;;
18789;SDS011;9523;42.650;23.386;2023-02-01T08:45:47;5.30;;;2.33;;
18789;SDS011;9523;42.650;23.386;2023-02-01T08:48:16;3.70;;;1.57;;
18789;SDS011;9523;42.650;23.386;2023-02-01T08:50:42;5.10;;;2.07;;
18789;SDS011;9523;42.650;23.386;2023-02-01T08:53:09;7.47;;;2.40;;
18789;SDS011;9523;42.650;23.386;2023-02-01T08:55:38;3.57;;;1.80;;
18789;SDS011;9523;42.650;23.386;2023-02-01T08:58:05;4.30;;;2.00;;
18789;SDS011;9523;42.650;23.386;2023-02-01T09:00:31;3.90;;;2.00;;
18789;SDS011;9523;42.650;23.386;2023-02-01T09:02:58;5.13;;;2.53;;
18789;SDS011;9523;42.650;23.386;2023-02-01T09:05:26;6.23;;;2.03;;
18789;SDS011;9523;42.650;23.386;2023-02-01T09:07:53;4.20;;;1.93;;
18789;SDS011;9523;42.650;23.386;2023-02-01T09:10:19;2.60;;;1.93;;
18789;SDS011;9523;42.650;23.386;2023-02-01T09:12:46;4.37;;;2.10;;
18789;SDS011;9523;42.650;23.386;2023-02-01T09:15:12;3.87;;;1.90;;
18789;SDS011;9523;42.650;23.386;2023-02-01T09:17:39;3.37;;;1.80;;
18789;SDS011;9523;42.650;23.386;2023-02-01T09:20:07;2.30;;;1.57;;
18789;SDS011;9523;42.650;23.386;2023-02-01T09:22:35;3.53;;;1.40;;
18789;SDS011;9523;42.650;23.386;2023-02-01T09:25:01;1.30;;;1.20;;
18789;SDS011;9523;42.650;23.386;2023-02-01T09:27:28;6.40;;;1.87;;
18789;SDS011;9523;42.650;23.386;2023-02-01T09:29:54;4.10;;;1.87;;
18789;SDS011;9523;42.650;23.386;2023-02-01T09:32:21;3.33;;;1.73;;
18789;SDS011;9523;42.650;23.386;2023-02-01T09:34:48;3.13;;;1.93;;
18789;SDS011;9523;42.650;23.386;2023-02-01T09:37:14;4.43;;;2.10;;
18789;SDS011;9523;42.650;23.386;2023-02-01T09:39:42;3.90;;;1.80;;
18789;SDS011;9523;42.650;23.386;2023-02-01T09:42:16;3.20;;;1.67;;
18789;SDS011;9523;42.650;23.386;2023-02-01T09:45:02;2.77;;;2.17;;
18789;SDS011;9523;42.650;23.386;2023-02-01T09:47:32;4.70;;;1.87;;
18789;SDS011;9523;42.650;23.386;2023-02-01T09:50:02;2.17;;;1.80;;
18789;SDS011;9523;42.650;23.386;2023-02-01T09:52:31;3.33;;;1.67;;
18789;SDS011;9523;42.650;23.386;2023-02-01T09:55:01;3.20;;;1.70;;
18789;SDS011;9523;42.650;23.386;2023-02-01T09:57:33;3.80;;;1.70;;
18789;SDS011;9523;42.650;23.386;2023-02-01T10:00:04;4.97;;;1.87;;
18789;SDS011;9523;42.650;23.386;2023-02-01T10:02:32;8.23;;;2.10;;
18789;SDS011;9523;42.650;23.386;2023-02-01T10:05:02;3.17;;;1.57;;
18789;SDS011;9523;42.650;23.386;2023-02-01T10:07:30;3.90;;;1.50;;
18789;SDS011;9523;42.650;23.386;2023-02-01T10:09:59;4.83;;;2.10;;
18789;SDS011;9523;42.650;23.386;2023-02-01T10:15:18;2.73;;;1.80;;
18789;SDS011;9523;42.650;23.386;2023-02-01T10:17:49;2.37;;;1.30;;
18789;SDS011;9523;42.650;23.386;2023-02-01T10:20:19;2.83;;;1.87;;
18789;SDS011;9523;42.650;23.386;2023-02-01T10:22:51;4.20;;;1.60;;
18789;SDS011;9523;42.650;23.386;2023-02-01T10:25:21;2.27;;;1.80;;
18789;SDS011;9523;42.650;23.386;2023-02-01T10:27:49;2.70;;;1.70;;
18789;SDS011;9523;42.650;23.386;2023-02-01T10:30:19;2.17;;;1.80;;
18789;SDS011;9523;42.650;23.386;2023-02-01T10:32:47;3.00;;;1.53;;
18789;SDS011;9523;42.650;23.386;2023-02-01T10:35:15;3.10;;;1.60;;
18789;SDS011;9523;42.650;23.386;2023-02-01T10:37:42;1.93;;;1.20;;
18789;SDS011;9523;42.650;23.386;2023-02-01T10:40:12;1.87;;;1.60;;
18789;SDS011;9523;42.650;23.386;2023-02-01T10:42:41;3.33;;;1.50;;
18789;SDS011;9523;42.650;23.386;2023-02-01T10:45:11;3.60;;;1.90;;
18789;SDS011;9523;42.650;23.386;2023-02-01T10:47:40;3.40;;;1.83;;
18789;SDS011;9523;42.650;23.386;2023-02-01T10:50:11;3.10;;;1.20;;
18789;SDS011;9523;42.650;23.386;2023-02-01T10:52:41;2.17;;;1.40;;
18789;SDS011;9523;42.650;23.386;2023-02-01T10:57:55;2.00;;;1.23;;
18789;SDS011;9523;42.650;23.386;2023-02-01T11:00:22;2.83;;;1.10;;
18789;SDS011;9523;42.650;23.386;2023-02-01T11:02:50;21.63;;;2.10;;
18789;SDS011;9523;42.650;23.386;2023-02-01T11:05:16;2.87;;;1.53;;
18789;SDS011;9523;42.650;23.386;2023-02-01T11:07:46;2.87;;;1.40;;
18789;SDS011;9523;42.650;23.386;2023-02-01T11:12:56;3.73;;;2.13;;
18789;SDS011;9523;42.650;23.386;2023-02-01T11:15:23;1.67;;;1.43;;
18789;SDS011;9523;42.650;23.386;2023-02-01T11:17:51;2.77;;;1.60;;
18789;SDS011;9523;42.650;23.386;2023-02-01T11:20:20;2.20;;;1.53;;
18789;SDS011;9523;42.650;23.386;2023-02-01T11:22:53;2.83;;;1.47;;
18789;SDS011;9523;42.650;23.386;2023-02-01T11:25:20;3.83;;;1.80;;
18789;SDS011;9523;42.650;23.386;2023-02-01T11:27:47;2.90;;;1.57;;
18789;SDS011;9523;42.650;23.386;2023-02-01T11:30:15;2.97;;;1.70;;
18789;SDS011;9523;42.650;23.386;2023-02-01T11:32:42;3.27;;;1.40;;
18789;SDS011;9523;42.650;23.386;2023-02-01T11:35:13;5.83;;;1.87;;
18789;SDS011;9523;42.650;23.386;2023-02-01T11:37:41;3.87;;;1.90;;
18789;SDS011;9523;42.650;23.386;2023-02-01T11:40:22;4.80;;;1.87;;
18789;SDS011;9523;42.650;23.386;2023-02-01T11:42:53;2.77;;;1.30;;
18789;SDS011;9523;42.650;23.386;2023-02-01T11:45:24;3.27;;;1.57;;
18789;SDS011;9523;42.650;23.386;2023-02-01T11:47:51;3.27;;;1.60;;
18789;SDS011;9523;42.650;23.386;2023-02-01T11:50:21;3.50;;;1.50;;
18789;SDS011;9523;42.650;23.386;2023-02-01T11:52:57;2.40;;;1.40;;
18789;SDS011;9523;42.650;23.386;2023-02-01T11:55:40;4.20;;;1.60;;
18789;SDS011;9523;42.650;23.386;2023-02-01T11:58:19;3.87;;;1.43;;
18789;SDS011;9523;42.650;23.386;2023-02-01T12:00:52;3.00;;;1.30;;
18789;SDS011;9523;42.650;23.386;2023-02-01T12:06:11;3.53;;;1.53;;
18789;SDS011;9523;42.650;23.386;2023-02-01T12:08:51;3.20;;;1.37;;
18789;SDS011;9523;42.650;23.386;2023-02-01T12:11:31;3.27;;;1.20;;
18789;SDS011;9523;42.650;23.386;2023-02-01T12:14:02;3.40;;;2.07;;
18789;SDS011;9523;42.650;23.386;2023-02-01T12:16:40;2.60;;;1.30;;
18789;SDS011;9523;42.650;23.386;2023-02-01T12:19:15;2.73;;;1.27;;
18789;SDS011;9523;42.650;23.386;2023-02-01T12:21:48;3.30;;;1.10;;
18789;SDS011;9523;42.650;23.386;2023-02-01T12:24:25;23.33;;;10.37;;
18789;SDS011;9523;42.650;23.386;2023-02-01T12:27:01;3.03;;;0.87;;
18789;SDS011;9523;42.650;23.386;2023-02-01T12:29:33;3.97;;;1.87;;
18789;SDS011;9523;42.650;23.386;2023-02-01T12:32:10;4.33;;;2.30;;
18789;SDS011;9523;42.650;23.386;2023-02-01T12:34:51;3.23;;;1.50;;
18789;SDS011;9523;42.650;23.386;2023-02-01T12:37:25;1.57;;;1.00;;
18789;SDS011;9523;42.650;23.386;2023-02-01T12:40:00;1.30;;;1.20;;
18789;SDS011;9523;42.650;23.386;2023-02-01T12:42:30;1.13;;;1.00;;
18789;SDS011;9523;42.650;23.386;2023-02-01T12:44:59;1.77;;;1.27;;
18789;SDS011;9523;42.650;23.386;2023-02-01T12:47:29;2.27;;;1.20;;
18789;SDS011;9523;42.650;23.386;2023-02-01T12:49:59;3.40;;;1.17;;
18789;SDS011;9523;42.650;23.386;2023-02-01T12:52:30;2.60;;;1.40;;
18789;SDS011;9523;42.650;23.386;2023-02-01T12:55:01;2.17;;;1.30;;
18789;SDS011;9523;42.650;23.386;2023-02-01T12:57:30;1.40;;;1.27;;
18789;SDS011;9523;42.650;23.386;2023-02-01T13:00:01;4.00;;;1.20;;
18789;SDS011;9523;42.650;23.386;2023-02-01T13:02:28;4.40;;;1.63;;
18789;SDS011;9523;42.650;23.386;2023-02-01T13:04:59;3.50;;;1.57;;
18789;SDS011;9523;42.650;23.386;2023-02-01T13:07:31;3.33;;;1.57;;
18789;SDS011;9523;42.650;23.386;2023-02-01T13:10:02;1.73;;;1.20;;
18789;SDS011;9523;42.650;23.386;2023-02-01T13:12:32;12.23;;;1.67;;
18789;SDS011;9523;42.650;23.386;2023-02-01T13:15:01;2.77;;;1.30;;
18789;SDS011;9523;42.650;23.386;2023-02-01T13:17:29;2.43;;;1.67;;
18789;SDS011;9523;42.650;23.386;2023-02-01T13:19:57;3.07;;;1.07;;
18789;SDS011;9523;42.650;23.386;2023-02-01T13:22:27;1.67;;;1.00;;
18789;SDS011;9523;42.650;23.386;2023-02-01T13:24:57;1.97;;;1.17;;
18789;SDS011;9523;42.650;23.386;2023-02-01T13:27:26;2.23;;;1.00;;
18789;SDS011;9523;42.650;23.386;2023-02-01T13:29:57;3.27;;;1.27;;
18789;SDS011;9523;42.650;23.386;2023-02-01T13:38:20;3.40;;;1.23;;
18789;SDS011;9523;42.650;23.386;2023-02-01T13:40:55;1.87;;;1.17;;
18789;SDS011;9523;42.650;23.386;2023-02-01T13:43:29;1.93;;;1.33;;
18789;SDS011;9523;42.650;23.386;2023-02-01T13:45:56;1.00;;;0.90;;
18789;SDS011;9523;42.650;23.386;2023-02-01T13:48:25;3.93;;;1.40;;
18789;SDS011;9523;42.650;23.386;2023-02-01T13:50:57;2.20;;;1.10;;
18789;SDS011;9523;42.650;23.386;2023-02-01T13:53:27;2.03;;;1.10;;
18789;SDS011;9523;42.650;23.386;2023-02-01T13:55:59;2.27;;;1.27;;
18789;SDS011;9523;42.650;23.386;2023-02-01T13:58:30;1.50;;;1.23;;
18789;SDS011;9523;42.650;23.386;2023-02-01T14:03:42;2.00;;;1.33;;
18789;SDS011;9523;42.650;23.386;2023-02-01T14:06:15;1.70;;;1.33;;
18789;SDS011;9523;42.650;23.386;2023-02-01T14:08:43;2.63;;;1.20;;
18789;SDS011;9523;42.650;23.386;2023-02-01T14:13:58;2.60;;;1.67;;
18789;SDS011;9523;42.650;23.386;2023-02-01T14:16:33;2.83;;;1.67;;
18789;SDS011;9523;42.650;23.386;2023-02-01T14:19:00;2.37;;;1.37;;
18789;SDS011;9523;42.650;23.386;2023-02-01T14:21:27;1.80;;;1.23;;
18789;SDS011;9523;42.650;23.386;2023-02-01T14:23:56;0.90;;;0.90;;
18789;SDS011;9523;42.650;23.386;2023-02-01T14:26:24;3.20;;;1.47;;
18789;SDS011;9523;42.650;23.386;2023-02-01T14:29:02;4.50;;;1.63;;
18789;SDS011;9523;42.650;23.386;2023-02-01T14:31:39;1.43;;;1.10;;
18789;SDS011;9523;42.650;23.386;2023-02-01T14:34:17;1.90;;;1.20;;
18789;SDS011;9523;42.650;23.386;2023-02-01T14:36:46;2.40;;;1.40;;
18789;SDS011;9523;42.650;23.386;2023-02-01T14:39:20;2.67;;;1.23;;
18789;SDS011;9523;42.650;23.386;2023-02-01T14:41:51;2.23;;;1.40;;
18789;SDS011;9523;42.650;23.386;2023-02-01T14:44:28;2.37;;;1.17;;
18789;SDS011;9523;42.650;23.386;2023-02-01T14:47:05;2.63;;;1.60;;
18789;SDS011;9523;42.650;23.386;2023-02-01T14:49:32;2.73;;;1.53;;
18789;SDS011;9523;42.650;23.386;2023-02-01T14:51:59;1.63;;;1.30;;
18789;SDS011;9523;42.650;23.386;2023-02-01T14:54:28;2.40;;;1.40;;
18789;SDS011;9523;42.650;23.386;2023-02-01T14:56:55;3.13;;;1.47;;
18789;SDS011;9523;42.650;23.386;2023-02-01T14:59:22;1.93;;;1.50;;
18789;SDS011;9523;42.650;23.386;2023-02-01T15:01:52;3.60;;;1.83;;
18789;SDS011;9523;42.650;23.386;2023-02-01T15:04:20;2.60;;;1.30;;
18789;SDS011;9523;42.650;23.386;2023-02-01T15:06:47;3.37;;;1.80;;
18789;SDS011;9523;42.650;23.386;2023-02-01T15:09:15;2.30;;;1.60;;
18789;SDS011;9523;42.650;23.386;2023-02-01T15:11:56;3.40;;;1.57;;
18789;SDS011;9523;42.650;23.386;2023-02-01T15:14:23;2.67;;;1.70;;
18789;SDS011;9523;42.650;23.386;2023-02-01T15:16:51;3.47;;;1.67;;
18789;SDS011;9523;42.650;23.386;2023-02-01T15:19:20;2.03;;;1.47;;
18789;SDS011;9523;42.650;23.386;2023-02-01T15:21:49;2.43;;;1.70;;
18789;SDS011;9523;42.650;23.386;2023-02-01T15:24:21;1.90;;;1.40;;
18789;SDS011;9523;42.650;23.386;2023-02-01T15:26:48;2.40;;;1.87;;
18789;SDS011;9523;42.650;23.386;2023-02-01T15:29:15;4.97;;;2.07;;
18789;SDS011;9523;42.650;23.386;2023-02-01T15:31:42;4.47;;;1.80;;